sensor_id;sensor_type;location;lat;lon;timestamp;P1;durP1;ratioP1;P2;durP2;ratioP2
9294;SDS011;4686;44.496;11.324;2023-02-28T00:00:54;18.77;;;16.17;;
9294;SDS011;4686;44.496;11.324;2023-02-28T00:03:22;22.17;;;16.57;;
9294;SDS011;4686;44.496;11.324;2023-02-28T00:05:49;18.93;;;15.97;;
9294;SDS011;4686;44.496;11.324;2023-02-28T00:08:18;18.90;;;15.57;;
9294;SDS011;4686;44.496;11.324;2023-02-28T00:10:45;24.37;;;16.90;;
9294;SDS011;4686;44.496;11.324;2023-02-28T00:13:12;23.67;;;17.37;;
9294;SDS011;4686;44.496;11.324;2023-02-28T00:15:40;28.13;;;17.93;;
9294;SDS011;4686;44.496;11.324;2023-02-28T00:18:07;21.47;;;17.27;;
9294;SDS011;4686;44.496;11.324;2023-02-28T00:20:34;20.80;;;17.17;;
9294;SDS011;4686;44.496;11.324;2023-02-28T00:23:02;23.90;;;17.43;;
9294;SDS011;4686;44.496;11.324;2023-02-28T00:25:30;21.03;;;17.93;;
9294;SDS011;4686;44.496;11.324;2023-02-28T00:27:58;22.20;;;17.77;;
9294;SDS011;4686;44.496;11.324;2023-02-28T00:30:25;24.60;;;17.40;;
9294;SDS011;4686;44.496;11.324;2023-02-28T00:32:52;22.50;;;18.53;;
9294;SDS011;4686;44.496;11.324;2023-02-28T00:35:20;24.10;;;18.50;;
9294;SDS011;4686;44.496;11.324;2023-02-28T00:37:47;21.77;;;17.63;;
9294;SDS011;4686;44.496;11.324;2023-02-28T00:40:15;21.20;;;16.87;;
9294;SDS011;4686;44.496;11.324;2023-02-28T00:42:45;18.63;;;16.20;;
9294;SDS011;4686;44.496;11.324;2023-02-28T00:45:12;22.33;;;16.97;;
9294;SDS011;4686;44.496;11.324;2023-02-28T00:47:39;21.73;;;16.23;;
9294;SDS011;4686;44.496;11.324;2023-02-28T00:50:07;20.57;;;16.70;;
9294;SDS011;4686;44.496;11.324;2023-02-28T00:52:34;22.10;;;17.50;;
9294;SDS011;4686;44.496;11.324;2023-02-28T00:55:02;19.40;;;16.27;;
9294;SDS011;4686;44.496;11.324;2023-02-28T00:57:29;17.63;;;15.80;;
9294;SDS011;4686;44.496;11.324;2023-02-28T00:59:57;18.30;;;16.30;;
9294;SDS011;4686;44.496;11.324;2023-02-28T01:02:25;19.17;;;16.47;;
9294;SDS011;4686;44.496;11.324;2023-02-28T01:04:52;18.23;;;15.60;;
9294;SDS011;4686;44.496;11.324;2023-02-28T01:07:19;17.00;;;15.30;;
9294;SDS011;4686;44.496;11.324;2023-02-28T01:09:46;17.90;;;15.40;;
9294;SDS011;4686;44.496;11.324;2023-02-28T01:12:14;22.57;;;15.80;;
9294;SDS011;4686;44.496;11.324;2023-02-28T01:14:41;18.50;;;15.50;;
9294;SDS011;4686;44.496;11.324;2023-02-28T01:17:10;18.33;;;16.43;;
9294;SDS011;4686;44.496;11.324;2023-02-28T01:19:37;24.60;;;17.17;;
9294;SDS011;4686;44.496;11.324;2023-02-28T01:22:05;22.33;;;16.30;;
9294;SDS011;4686;44.496;11.324;2023-02-28T01:24:33;21.43;;;16.17;;
9294;SDS011;4686;44.496;11.324;2023-02-28T01:27:00;21.30;;;16.60;;
9294;SDS011;4686;44.496;11.324;2023-02-28T01:29:27;20.03;;;15.33;;
9294;SDS011;4686;44.496;11.324;2023-02-28T01:31:55;24.50;;;15.60;;
9294;SDS011;4686;44.496;11.324;2023-02-28T01:34:25;16.53;;;14.23;;
9294;SDS011;4686;44.496;11.324;2023-02-28T01:36:53;23.43;;;16.57;;
9294;SDS011;4686;44.496;11.324;2023-02-28T01:39:20;19.33;;;15.87;;
9294;SDS011;4686;44.496;11.324;2023-02-28T01:41:48;19.57;;;16.23;;
9294;SDS011;4686;44.496;11.324;2023-02-28T01:47:01;18.40;;;14.60;;
9294;SDS011;4686;44.496;11.324;2023-02-28T01:49:30;20.27;;;15.90;;
9294;SDS011;4686;44.496;11.324;2023-02-28T01:52:00;18.83;;;14.90;;
9294;SDS011;4686;44.496;11.324;2023-02-28T01:54:28;19.77;;;15.20;;
9294;SDS011;4686;44.496;11.324;2023-02-28T01:56:56;17.90;;;15.10;;
9294;SDS011;4686;44.496;11.324;2023-02-28T01:59:27;17.33;;;15.17;;
9294;SDS011;4686;44.496;11.324;2023-02-28T02:01:56;18.73;;;15.40;;
9294;SDS011;4686;44.496;11.324;2023-02-28T02:04:25;17.87;;;15.10;;
9294;SDS011;4686;44.496;11.324;2023-02-28T02:06:55;19.17;;;14.63;;
9294;SDS011;4686;44.496;11.324;2023-02-28T02:09:22;26.60;;;14.53;;
9294;SDS011;4686;44.496;11.324;2023-02-28T02:11:50;20.60;;;15.60;;
9294;SDS011;4686;44.496;11.324;2023-02-28T02:17:17;17.13;;;14.83;;
9294;SDS011;4686;44.496;11.324;2023-02-28T02:22:43;23.50;;;14.80;;
9294;SDS011;4686;44.496;11.324;2023-02-28T02:25:19;16.67;;;14.50;;
9294;SDS011;4686;44.496;11.324;2023-02-28T02:27:57;19.33;;;15.10;;
9294;SDS011;4686;44.496;11.324;2023-02-28T02:35:54;17.63;;;14.33;;
9294;SDS011;4686;44.496;11.324;2023-02-28T02:38:27;17.07;;;14.63;;
9294;SDS011;4686;44.496;11.324;2023-02-28T02:40:57;20.83;;;14.40;;
9294;SDS011;4686;44.496;11.324;2023-02-28T02:43:28;16.00;;;14.40;;
9294;SDS011;4686;44.496;11.324;2023-02-28T02:45:57;19.67;;;15.60;;
9294;SDS011;4686;44.496;11.324;2023-02-28T02:48:27;25.33;;;15.17;;
9294;SDS011;4686;44.496;11.324;2023-02-28T02:50:58;23.03;;;14.73;;
9294;SDS011;4686;44.496;11.324;2023-02-28T02:53:27;19.37;;;15.50;;
9294;SDS011;4686;44.496;11.324;2023-02-28T02:55:55;18.50;;;15.07;;
9294;SDS011;4686;44.496;11.324;2023-02-28T02:58:24;18.00;;;15.10;;
9294;SDS011;4686;44.496;11.324;2023-02-28T03:00:53;16.80;;;14.67;;
9294;SDS011;4686;44.496;11.324;2023-02-28T03:03:21;20.97;;;15.17;;
9294;SDS011;4686;44.496;11.324;2023-02-28T03:05:54;17.80;;;15.20;;
9294;SDS011;4686;44.496;11.324;2023-02-28T03:08:23;17.33;;;15.60;;
9294;SDS011;4686;44.496;11.324;2023-02-28T03:10:50;16.27;;;14.57;;
9294;SDS011;4686;44.496;11.324;2023-02-28T03:13:31;18.10;;;15.93;;
9294;SDS011;4686;44.496;11.324;2023-02-28T03:16:08;17.47;;;13.90;;
9294;SDS011;4686;44.496;11.324;2023-02-28T03:18:40;18.60;;;15.40;;
9294;SDS011;4686;44.496;11.324;2023-02-28T03:21:13;15.93;;;14.33;;
9294;SDS011;4686;44.496;11.324;2023-02-28T03:23:47;21.63;;;16.33;;
9294;SDS011;4686;44.496;11.324;2023-02-28T03:26:19;15.73;;;14.00;;
9294;SDS011;4686;44.496;11.324;2023-02-28T03:28:49;18.03;;;15.40;;
9294;SDS011;4686;44.496;11.324;2023-02-28T03:31:18;17.17;;;15.37;;
9294;SDS011;4686;44.496;11.324;2023-02-28T03:33:48;18.37;;;14.73;;
9294;SDS011;4686;44.496;11.324;2023-02-28T03:36:20;19.60;;;15.10;;
9294;SDS011;4686;44.496;11.324;2023-02-28T03:38:50;19.03;;;16.57;;
9294;SDS011;4686;44.496;11.324;2023-02-28T03:41:20;18.10;;;16.30;;
9294;SDS011;4686;44.496;11.324;2023-02-28T03:43:49;16.03;;;14.37;;
9294;SDS011;4686;44.496;11.324;2023-02-28T03:46:18;21.83;;;15.33;;
9294;SDS011;4686;44.496;11.324;2023-02-28T03:48:47;16.57;;;14.80;;
9294;SDS011;4686;44.496;11.324;2023-02-28T03:51:18;18.53;;;14.87;;
9294;SDS011;4686;44.496;11.324;2023-02-28T03:53:49;16.20;;;14.47;;
9294;SDS011;4686;44.496;11.324;2023-02-28T03:56:18;15.57;;;13.97;;
9294;SDS011;4686;44.496;11.324;2023-02-28T03:58:47;17.00;;;14.90;;
9294;SDS011;4686;44.496;11.324;2023-02-28T04:01:16;15.87;;;14.27;;
9294;SDS011;4686;44.496;11.324;2023-02-28T04:03:46;19.10;;;14.93;;
9294;SDS011;4686;44.496;11.324;2023-02-28T04:06:14;16.20;;;14.47;;
9294;SDS011;4686;44.496;11.324;2023-02-28T04:08:42;21.90;;;15.00;;
9294;SDS011;4686;44.496;11.324;2023-02-28T04:11:14;17.43;;;14.90;;
9294;SDS011;4686;44.496;11.324;2023-02-28T04:13:43;15.77;;;14.17;;
9294;SDS011;4686;44.496;11.324;2023-02-28T04:16:11;15.50;;;14.03;;
9294;SDS011;4686;44.496;11.324;2023-02-28T04:18:38;18.97;;;14.43;;
9294;SDS011;4686;44.496;11.324;2023-02-28T04:21:05;17.00;;;14.80;;
9294;SDS011;4686;44.496;11.324;2023-02-28T04:23:33;14.90;;;13.40;;
9294;SDS011;4686;44.496;11.324;2023-02-28T04:26:00;19.10;;;14.43;;
9294;SDS011;4686;44.496;11.324;2023-02-28T04:28:28;15.70;;;14.00;;
9294;SDS011;4686;44.496;11.324;2023-02-28T04:30:56;24.07;;;15.77;;
9294;SDS011;4686;44.496;11.324;2023-02-28T04:33:23;19.43;;;15.27;;
9294;SDS011;4686;44.496;11.324;2023-02-28T04:35:57;18.90;;;14.47;;
9294;SDS011;4686;44.496;11.324;2023-02-28T04:38:24;17.77;;;15.90;;
9294;SDS011;4686;44.496;11.324;2023-02-28T04:40:52;16.43;;;14.50;;
9294;SDS011;4686;44.496;11.324;2023-02-28T04:43:19;17.27;;;15.47;;
9294;SDS011;4686;44.496;11.324;2023-02-28T04:45:47;18.10;;;16.20;;
9294;SDS011;4686;44.496;11.324;2023-02-28T04:48:14;17.83;;;14.83;;
9294;SDS011;4686;44.496;11.324;2023-02-28T04:50:42;16.20;;;14.50;;
9294;SDS011;4686;44.496;11.324;2023-02-28T04:53:09;21.27;;;14.83;;
9294;SDS011;4686;44.496;11.324;2023-02-28T04:55:36;17.67;;;13.93;;
9294;SDS011;4686;44.496;11.324;2023-02-28T04:58:05;18.53;;;14.20;;
9294;SDS011;4686;44.496;11.324;2023-02-28T05:00:32;16.23;;;14.50;;
9294;SDS011;4686;44.496;11.324;2023-02-28T05:03:01;21.07;;;16.30;;
9294;SDS011;4686;44.496;11.324;2023-02-28T05:05:28;16.37;;;14.60;;
9294;SDS011;4686;44.496;11.324;2023-02-28T05:07:55;19.00;;;14.23;;
9294;SDS011;4686;44.496;11.324;2023-02-28T05:10:22;17.07;;;15.23;;
9294;SDS011;4686;44.496;11.324;2023-02-28T05:12:50;20.30;;;16.30;;
9294;SDS011;4686;44.496;11.324;2023-02-28T05:15:17;15.07;;;13.67;;
9294;SDS011;4686;44.496;11.324;2023-02-28T05:17:47;15.73;;;14.20;;
9294;SDS011;4686;44.496;11.324;2023-02-28T05:20:16;17.43;;;14.30;;
9294;SDS011;4686;44.496;11.324;2023-02-28T05:22:43;17.30;;;15.30;;
9294;SDS011;4686;44.496;11.324;2023-02-28T05:25:11;17.67;;;14.70;;
9294;SDS011;4686;44.496;11.324;2023-02-28T05:27:40;17.50;;;14.83;;
9294;SDS011;4686;44.496;11.324;2023-02-28T05:30:07;16.73;;;15.10;;
9294;SDS011;4686;44.496;11.324;2023-02-28T05:32:36;15.80;;;14.07;;
9294;SDS011;4686;44.496;11.324;2023-02-28T05:35:03;17.00;;;15.20;;
9294;SDS011;4686;44.496;11.324;2023-02-28T05:37:32;16.30;;;14.60;;
9294;SDS011;4686;44.496;11.324;2023-02-28T05:39:59;16.30;;;14.67;;
9294;SDS011;4686;44.496;11.324;2023-02-28T05:42:31;17.40;;;14.70;;
9294;SDS011;4686;44.496;11.324;2023-02-28T05:44:58;18.83;;;15.63;;
9294;SDS011;4686;44.496;11.324;2023-02-28T05:47:25;16.93;;;15.00;;
9294;SDS011;4686;44.496;11.324;2023-02-28T05:49:53;17.53;;;15.73;;
9294;SDS011;4686;44.496;11.324;2023-02-28T05:52:20;23.63;;;15.40;;
9294;SDS011;4686;44.496;11.324;2023-02-28T05:54:48;16.67;;;15.10;;
9294;SDS011;4686;44.496;11.324;2023-02-28T05:57:16;17.13;;;15.33;;
9294;SDS011;4686;44.496;11.324;2023-02-28T05:59:43;17.73;;;15.83;;
9294;SDS011;4686;44.496;11.324;2023-02-28T06:02:11;17.70;;;15.60;;
9294;SDS011;4686;44.496;11.324;2023-02-28T06:04:39;19.40;;;15.80;;
9294;SDS011;4686;44.496;11.324;2023-02-28T06:07:06;18.50;;;16.53;;
9294;SDS011;4686;44.496;11.324;2023-02-28T06:09:36;18.03;;;16.17;;
9294;SDS011;4686;44.496;11.324;2023-02-28T06:12:06;17.97;;;16.10;;
9294;SDS011;4686;44.496;11.324;2023-02-28T06:14:35;22.40;;;16.30;;
9294;SDS011;4686;44.496;11.324;2023-02-28T06:17:02;16.77;;;15.17;;
9294;SDS011;4686;44.496;11.324;2023-02-28T06:19:30;18.57;;;16.03;;
9294;SDS011;4686;44.496;11.324;2023-02-28T06:21:57;22.23;;;17.33;;
9294;SDS011;4686;44.496;11.324;2023-02-28T06:24:24;19.60;;;17.03;;
9294;SDS011;4686;44.496;11.324;2023-02-28T06:26:52;19.20;;;16.93;;
9294;SDS011;4686;44.496;11.324;2023-02-28T06:29:23;19.67;;;17.57;;
9294;SDS011;4686;44.496;11.324;2023-02-28T06:31:50;18.53;;;16.63;;
9294;SDS011;4686;44.496;11.324;2023-02-28T06:34:17;22.33;;;17.40;;
9294;SDS011;4686;44.496;11.324;2023-02-28T06:36:44;22.00;;;18.00;;
9294;SDS011;4686;44.496;11.324;2023-02-28T06:39:12;19.60;;;17.53;;
9294;SDS011;4686;44.496;11.324;2023-02-28T06:41:39;20.37;;;16.40;;
9294;SDS011;4686;44.496;11.324;2023-02-28T06:44:10;22.80;;;18.40;;
9294;SDS011;4686;44.496;11.324;2023-02-28T06:46:39;23.87;;;16.77;;
9294;SDS011;4686;44.496;11.324;2023-02-28T06:49:07;21.20;;;17.90;;
9294;SDS011;4686;44.496;11.324;2023-02-28T06:51:35;20.40;;;18.33;;
9294;SDS011;4686;44.496;11.324;2023-02-28T06:54:03;19.20;;;17.20;;
9294;SDS011;4686;44.496;11.324;2023-02-28T06:56:34;26.40;;;17.90;;
9294;SDS011;4686;44.496;11.324;2023-02-28T06:59:01;19.73;;;17.63;;
9294;SDS011;4686;44.496;11.324;2023-02-28T07:01:29;20.43;;;18.33;;
9294;SDS011;4686;44.496;11.324;2023-02-28T07:03:58;19.97;;;17.87;;
9294;SDS011;4686;44.496;11.324;2023-02-28T07:06:26;24.83;;;19.83;;
9294;SDS011;4686;44.496;11.324;2023-02-28T07:08:53;16.92;;;14.65;;
9294;SDS011;4686;44.496;11.324;2023-02-28T07:11:21;25.00;;;19.30;;
9294;SDS011;4686;44.496;11.324;2023-02-28T07:13:50;21.43;;;18.87;;
9294;SDS011;4686;44.496;11.324;2023-02-28T07:16:20;21.10;;;18.33;;
9294;SDS011;4686;44.496;11.324;2023-02-28T07:18:47;22.07;;;18.50;;
9294;SDS011;4686;44.496;11.324;2023-02-28T07:21:16;20.20;;;18.10;;
9294;SDS011;4686;44.496;11.324;2023-02-28T07:23:43;27.00;;;17.80;;
9294;SDS011;4686;44.496;11.324;2023-02-28T07:26:11;21.80;;;19.53;;
9294;SDS011;4686;44.496;11.324;2023-02-28T07:28:39;22.87;;;19.23;;
9294;SDS011;4686;44.496;11.324;2023-02-28T07:31:07;21.20;;;19.00;;
9294;SDS011;4686;44.496;11.324;2023-02-28T07:33:35;20.80;;;18.30;;
9294;SDS011;4686;44.496;11.324;2023-02-28T07:36:03;20.70;;;18.70;;
9294;SDS011;4686;44.496;11.324;2023-02-28T07:41:03;21.00;;;17.50;;
9294;SDS011;4686;44.496;11.324;2023-02-28T07:43:31;22.90;;;19.70;;
9294;SDS011;4686;44.496;11.324;2023-02-28T07:46:01;22.97;;;18.40;;
9294;SDS011;4686;44.496;11.324;2023-02-28T07:48:30;19.37;;;17.33;;
9294;SDS011;4686;44.496;11.324;2023-02-28T07:50:58;22.07;;;19.10;;
9294;SDS011;4686;44.496;11.324;2023-02-28T07:53:25;22.57;;;18.33;;
9294;SDS011;4686;44.496;11.324;2023-02-28T07:55:57;20.77;;;18.60;;
9294;SDS011;4686;44.496;11.324;2023-02-28T07:58:27;21.20;;;18.90;;
9294;SDS011;4686;44.496;11.324;2023-02-28T08:00:56;22.67;;;17.63;;
9294;SDS011;4686;44.496;11.324;2023-02-28T08:03:26;26.47;;;22.47;;
9294;SDS011;4686;44.496;11.324;2023-02-28T08:05:54;25.60;;;19.10;;
9294;SDS011;4686;44.496;11.324;2023-02-28T08:08:21;23.63;;;19.50;;
9294;SDS011;4686;44.496;11.324;2023-02-28T08:10:57;21.13;;;18.87;;
9294;SDS011;4686;44.496;11.324;2023-02-28T08:13:26;23.23;;;18.33;;
9294;SDS011;4686;44.496;11.324;2023-02-28T08:15:54;21.90;;;17.90;;
9294;SDS011;4686;44.496;11.324;2023-02-28T08:18:21;22.77;;;19.37;;
9294;SDS011;4686;44.496;11.324;2023-02-28T08:20:49;26.20;;;20.10;;
9294;SDS011;4686;44.496;11.324;2023-02-28T08:23:16;23.20;;;20.30;;
9294;SDS011;4686;44.496;11.324;2023-02-28T08:25:44;28.83;;;19.87;;
9294;SDS011;4686;44.496;11.324;2023-02-28T08:28:11;27.60;;;20.40;;
9294;SDS011;4686;44.496;11.324;2023-02-28T08:30:42;24.40;;;22.00;;
9294;SDS011;4686;44.496;11.324;2023-02-28T08:33:09;26.60;;;19.67;;
9294;SDS011;4686;44.496;11.324;2023-02-28T08:35:38;25.87;;;21.20;;
9294;SDS011;4686;44.496;11.324;2023-02-28T08:38:05;22.77;;;20.37;;
9294;SDS011;4686;44.496;11.324;2023-02-28T08:40:33;26.10;;;22.00;;
9294;SDS011;4686;44.496;11.324;2023-02-28T08:43:00;27.50;;;21.40;;
9294;SDS011;4686;44.496;11.324;2023-02-28T08:45:27;23.50;;;20.93;;
9294;SDS011;4686;44.496;11.324;2023-02-28T08:47:56;23.43;;;19.70;;
9294;SDS011;4686;44.496;11.324;2023-02-28T08:50:24;21.60;;;18.40;;
9294;SDS011;4686;44.496;11.324;2023-02-28T08:52:51;28.90;;;20.80;;
9294;SDS011;4686;44.496;11.324;2023-02-28T08:55:18;28.60;;;21.13;;
9294;SDS011;4686;44.496;11.324;2023-02-28T08:57:46;23.27;;;20.67;;
9294;SDS011;4686;44.496;11.324;2023-02-28T09:00:13;26.73;;;20.73;;
9294;SDS011;4686;44.496;11.324;2023-02-28T09:02:41;27.27;;;22.43;;
9294;SDS011;4686;44.496;11.324;2023-02-28T09:05:10;24.87;;;20.57;;
9294;SDS011;4686;44.496;11.324;2023-02-28T09:07:37;23.93;;;21.33;;
9294;SDS011;4686;44.496;11.324;2023-02-28T09:10:05;24.60;;;21.37;;
9294;SDS011;4686;44.496;11.324;2023-02-28T09:12:34;26.60;;;20.33;;
9294;SDS011;4686;44.496;11.324;2023-02-28T09:15:02;31.57;;;22.57;;
9294;SDS011;4686;44.496;11.324;2023-02-28T09:17:30;27.53;;;22.00;;
9294;SDS011;4686;44.496;11.324;2023-02-28T09:19:57;27.03;;;22.10;;
9294;SDS011;4686;44.496;11.324;2023-02-28T09:22:25;26.00;;;21.47;;
9294;SDS011;4686;44.496;11.324;2023-02-28T09:24:53;27.77;;;23.23;;
9294;SDS011;4686;44.496;11.324;2023-02-28T09:27:21;31.53;;;23.67;;
9294;SDS011;4686;44.496;11.324;2023-02-28T09:29:48;25.90;;;22.60;;
9294;SDS011;4686;44.496;11.324;2023-02-28T09:32:15;25.30;;;21.40;;
9294;SDS011;4686;44.496;11.324;2023-02-28T09:34:43;29.27;;;23.47;;
9294;SDS011;4686;44.496;11.324;2023-02-28T09:37:10;26.07;;;22.67;;
9294;SDS011;4686;44.496;11.324;2023-02-28T09:39:39;26.50;;;22.10;;
9294;SDS011;4686;44.496;11.324;2023-02-28T09:42:11;22.30;;;20.00;;
9294;SDS011;4686;44.496;11.324;2023-02-28T09:44:44;35.43;;;23.33;;
9294;SDS011;4686;44.496;11.324;2023-02-28T09:47:13;24.23;;;20.73;;
9294;SDS011;4686;44.496;11.324;2023-02-28T09:49:42;27.60;;;20.70;;
9294;SDS011;4686;44.496;11.324;2023-02-28T09:52:12;27.73;;;22.03;;
9294;SDS011;4686;44.496;11.324;2023-02-28T09:54:42;30.57;;;21.77;;
9294;SDS011;4686;44.496;11.324;2023-02-28T09:57:13;28.90;;;20.20;;
9294;SDS011;4686;44.496;11.324;2023-02-28T09:59:45;23.13;;;19.63;;
9294;SDS011;4686;44.496;11.324;2023-02-28T10:02:19;24.13;;;19.93;;
9294;SDS011;4686;44.496;11.324;2023-02-28T10:04:49;26.50;;;21.40;;
9294;SDS011;4686;44.496;11.324;2023-02-28T10:07:23;27.10;;;21.60;;
9294;SDS011;4686;44.496;11.324;2023-02-28T10:09:56;27.53;;;19.93;;
9294;SDS011;4686;44.496;11.324;2023-02-28T10:12:25;23.20;;;20.20;;
9294;SDS011;4686;44.496;11.324;2023-02-28T10:14:52;23.83;;;20.50;;
9294;SDS011;4686;44.496;11.324;2023-02-28T10:17:22;22.43;;;20.10;;
9294;SDS011;4686;44.496;11.324;2023-02-28T10:19:55;24.97;;;20.13;;
9294;SDS011;4686;44.496;11.324;2023-02-28T10:22:23;38.07;;;22.53;;
9294;SDS011;4686;44.496;11.324;2023-02-28T10:24:51;30.27;;;20.80;;
9294;SDS011;4686;44.496;11.324;2023-02-28T10:27:21;22.73;;;19.73;;
9294;SDS011;4686;44.496;11.324;2023-02-28T10:29:49;29.60;;;20.80;;
9294;SDS011;4686;44.496;11.324;2023-02-28T10:32:18;39.73;;;25.40;;
9294;SDS011;4686;44.496;11.324;2023-02-28T10:34:46;25.80;;;20.30;;
9294;SDS011;4686;44.496;11.324;2023-02-28T10:37:17;29.03;;;22.80;;
9294;SDS011;4686;44.496;11.324;2023-02-28T10:39:46;26.93;;;21.10;;
9294;SDS011;4686;44.496;11.324;2023-02-28T10:42:22;21.73;;;19.40;;
9294;SDS011;4686;44.496;11.324;2023-02-28T10:47:33;26.00;;;19.40;;
9294;SDS011;4686;44.496;11.324;2023-02-28T10:50:01;23.43;;;20.87;;
9294;SDS011;4686;44.496;11.324;2023-02-28T10:52:36;27.73;;;21.10;;
9294;SDS011;4686;44.496;11.324;2023-02-28T10:55:14;24.83;;;21.60;;
9294;SDS011;4686;44.496;11.324;2023-02-28T10:57:43;24.17;;;20.20;;
9294;SDS011;4686;44.496;11.324;2023-02-28T11:00:13;22.60;;;20.00;;
9294;SDS011;4686;44.496;11.324;2023-02-28T11:02:41;26.50;;;20.90;;
9294;SDS011;4686;44.496;11.324;2023-02-28T11:05:23;24.37;;;20.40;;
9294;SDS011;4686;44.496;11.324;2023-02-28T11:07:51;24.03;;;20.33;;
9294;SDS011;4686;44.496;11.324;2023-02-28T11:10:19;26.63;;;20.60;;
9294;SDS011;4686;44.496;11.324;2023-02-28T11:12:48;21.30;;;18.40;;
9294;SDS011;4686;44.496;11.324;2023-02-28T11:15:20;25.43;;;20.20;;
9294;SDS011;4686;44.496;11.324;2023-02-28T11:17:52;23.87;;;20.10;;
9294;SDS011;4686;44.496;11.324;2023-02-28T11:20:21;24.63;;;21.13;;
9294;SDS011;4686;44.496;11.324;2023-02-28T11:22:48;35.57;;;21.30;;
9294;SDS011;4686;44.496;11.324;2023-02-28T11:25:19;25.33;;;19.43;;
9294;SDS011;4686;44.496;11.324;2023-02-28T11:27:50;24.80;;;20.53;;
9294;SDS011;4686;44.496;11.324;2023-02-28T11:30:25;25.03;;;20.67;;
9294;SDS011;4686;44.496;11.324;2023-02-28T11:32:52;28.90;;;20.77;;
9294;SDS011;4686;44.496;11.324;2023-02-28T11:35:21;28.17;;;20.87;;
9294;SDS011;4686;44.496;11.324;2023-02-28T11:37:50;24.50;;;21.10;;
9294;SDS011;4686;44.496;11.324;2023-02-28T11:40:18;27.30;;;19.80;;
9294;SDS011;4686;44.496;11.324;2023-02-28T11:42:52;24.23;;;21.40;;
9294;SDS011;4686;44.496;11.324;2023-02-28T11:45:22;26.83;;;22.10;;
9294;SDS011;4686;44.496;11.324;2023-02-28T11:47:54;24.77;;;19.57;;
9294;SDS011;4686;44.496;11.324;2023-02-28T11:50:31;22.50;;;20.10;;
9294;SDS011;4686;44.496;11.324;2023-02-28T11:53:05;28.03;;;21.93;;
9294;SDS011;4686;44.496;11.324;2023-02-28T11:55:38;27.27;;;20.07;;
9294;SDS011;4686;44.496;11.324;2023-02-28T11:58:20;27.87;;;21.73;;
9294;SDS011;4686;44.496;11.324;2023-02-28T12:00:55;25.77;;;21.47;;
9294;SDS011;4686;44.496;11.324;2023-02-28T12:03:27;26.50;;;22.90;;
9294;SDS011;4686;44.496;11.324;2023-02-28T12:05:58;32.67;;;20.90;;
9294;SDS011;4686;44.496;11.324;2023-02-28T12:08:31;23.33;;;20.63;;
9294;SDS011;4686;44.496;11.324;2023-02-28T12:11:05;24.80;;;20.20;;
9294;SDS011;4686;44.496;11.324;2023-02-28T12:13:36;31.63;;;21.30;;
9294;SDS011;4686;44.496;11.324;2023-02-28T12:16:13;24.83;;;20.00;;
9294;SDS011;4686;44.496;11.324;2023-02-28T12:18:53;25.90;;;20.40;;
9294;SDS011;4686;44.496;11.324;2023-02-28T12:21:26;29.43;;;21.50;;
9294;SDS011;4686;44.496;11.324;2023-02-28T12:23:58;24.70;;;20.83;;
9294;SDS011;4686;44.496;11.324;2023-02-28T12:26:31;24.53;;;19.97;;
9294;SDS011;4686;44.496;11.324;2023-02-28T12:29:04;29.77;;;19.00;;
9294;SDS011;4686;44.496;11.324;2023-02-28T12:31:36;21.40;;;18.67;;
9294;SDS011;4686;44.496;11.324;2023-02-28T12:34:06;21.97;;;19.57;;
9294;SDS011;4686;44.496;11.324;2023-02-28T12:36:36;34.23;;;19.80;;
9294;SDS011;4686;44.496;11.324;2023-02-28T12:39:06;25.80;;;19.57;;
9294;SDS011;4686;44.496;11.324;2023-02-28T12:41:37;25.07;;;19.60;;
9294;SDS011;4686;44.496;11.324;2023-02-28T12:44:08;24.60;;;20.00;;
9294;SDS011;4686;44.496;11.324;2023-02-28T12:46:37;26.70;;;20.67;;
9294;SDS011;4686;44.496;11.324;2023-02-28T12:49:08;23.63;;;20.17;;
9294;SDS011;4686;44.496;11.324;2023-02-28T12:51:36;22.27;;;19.50;;
9294;SDS011;4686;44.496;11.324;2023-02-28T12:54:06;30.43;;;20.23;;
9294;SDS011;4686;44.496;11.324;2023-02-28T12:56:38;27.00;;;20.37;;
9294;SDS011;4686;44.496;11.324;2023-02-28T12:59:12;21.50;;;17.80;;
9294;SDS011;4686;44.496;11.324;2023-02-28T13:01:54;21.23;;;18.80;;
9294;SDS011;4686;44.496;11.324;2023-02-28T13:04:43;21.60;;;19.27;;
9294;SDS011;4686;44.496;11.324;2023-02-28T13:07:16;25.87;;;21.93;;
9294;SDS011;4686;44.496;11.324;2023-02-28T13:09:51;24.10;;;18.87;;
9294;SDS011;4686;44.496;11.324;2023-02-28T13:12:19;26.43;;;20.10;;
9294;SDS011;4686;44.496;11.324;2023-02-28T13:14:49;25.93;;;20.90;;
9294;SDS011;4686;44.496;11.324;2023-02-28T13:17:17;23.67;;;18.73;;
9294;SDS011;4686;44.496;11.324;2023-02-28T13:19:46;21.33;;;19.00;;
9294;SDS011;4686;44.496;11.324;2023-02-28T13:22:36;21.63;;;18.87;;
9294;SDS011;4686;44.496;11.324;2023-02-28T13:25:12;26.93;;;20.00;;
9294;SDS011;4686;44.496;11.324;2023-02-28T13:27:59;23.17;;;19.70;;
9294;SDS011;4686;44.496;11.324;2023-02-28T13:33:20;24.83;;;21.40;;
9294;SDS011;4686;44.496;11.324;2023-02-28T13:35:50;22.50;;;20.17;;
9294;SDS011;4686;44.496;11.324;2023-02-28T13:38:34;24.57;;;21.10;;
9294;SDS011;4686;44.496;11.324;2023-02-28T13:44:03;24.90;;;22.20;;
9294;SDS011;4686;44.496;11.324;2023-02-28T13:46:33;26.33;;;20.60;;
9294;SDS011;4686;44.496;11.324;2023-02-28T13:51:44;35.10;;;21.43;;
9294;SDS011;4686;44.496;11.324;2023-02-28T13:54:24;31.40;;;21.83;;
9294;SDS011;4686;44.496;11.324;2023-02-28T13:57:02;25.20;;;21.90;;
9294;SDS011;4686;44.496;11.324;2023-02-28T13:59:33;28.83;;;22.13;;
9294;SDS011;4686;44.496;11.324;2023-02-28T14:02:09;29.07;;;22.30;;
9294;SDS011;4686;44.496;11.324;2023-02-28T14:07:26;28.23;;;23.10;;
9294;SDS011;4686;44.496;11.324;2023-02-28T14:09:58;32.67;;;23.50;;
9294;SDS011;4686;44.496;11.324;2023-02-28T14:15:28;26.43;;;22.10;;
9294;SDS011;4686;44.496;11.324;2023-02-28T14:17:57;29.53;;;22.10;;
9294;SDS011;4686;44.496;11.324;2023-02-28T14:20:27;27.40;;;23.80;;
9294;SDS011;4686;44.496;11.324;2023-02-28T14:22:57;24.80;;;21.77;;
9294;SDS011;4686;44.496;11.324;2023-02-28T14:25:30;29.20;;;23.13;;
9294;SDS011;4686;44.496;11.324;2023-02-28T14:28:03;31.23;;;23.57;;
9294;SDS011;4686;44.496;11.324;2023-02-28T14:30:42;32.17;;;24.73;;
9294;SDS011;4686;44.496;11.324;2023-02-28T14:33:23;30.13;;;23.33;;
9294;SDS011;4686;44.496;11.324;2023-02-28T14:36:01;29.00;;;22.37;;
9294;SDS011;4686;44.496;11.324;2023-02-28T14:38:30;33.50;;;24.40;;
9294;SDS011;4686;44.496;11.324;2023-02-28T14:41:00;31.73;;;25.50;;
9294;SDS011;4686;44.496;11.324;2023-02-28T14:43:31;32.50;;;25.80;;
9294;SDS011;4686;44.496;11.324;2023-02-28T14:46:00;34.47;;;26.80;;
9294;SDS011;4686;44.496;11.324;2023-02-28T14:48:28;28.83;;;24.43;;
9294;SDS011;4686;44.496;11.324;2023-02-28T14:50:56;32.60;;;26.20;;
9294;SDS011;4686;44.496;11.324;2023-02-28T14:53:25;32.80;;;25.83;;
9294;SDS011;4686;44.496;11.324;2023-02-28T14:55:53;32.90;;;26.33;;
9294;SDS011;4686;44.496;11.324;2023-02-28T14:58:22;33.20;;;25.10;;
9294;SDS011;4686;44.496;11.324;2023-02-28T15:00:50;35.10;;;26.00;;
9294;SDS011;4686;44.496;11.324;2023-02-28T15:03:21;29.33;;;25.23;;
9294;SDS011;4686;44.496;11.324;2023-02-28T15:05:52;36.80;;;27.37;;
9294;SDS011;4686;44.496;11.324;2023-02-28T15:08:19;39.70;;;26.67;;
9294;SDS011;4686;44.496;11.324;2023-02-28T15:10:50;31.03;;;24.83;;
9294;SDS011;4686;44.496;11.324;2023-02-28T15:13:18;36.40;;;25.90;;
9294;SDS011;4686;44.496;11.324;2023-02-28T15:15:47;33.73;;;25.93;;
9294;SDS011;4686;44.496;11.324;2023-02-28T15:18:22;34.23;;;26.30;;
9294;SDS011;4686;44.496;11.324;2023-02-28T15:20:50;33.83;;;25.23;;